createdAt,value
2022-10-05T00:01:36.113Z,12.57
2022-10-05T00:04:16.076Z,12.60
2022-10-05T00:06:55.685Z,12.60
2022-10-05T00:09:31.366Z,12.58
2022-10-05T00:12:14.156Z,12.59
2022-10-05T00:14:48.115Z,12.59
2022-10-05T00:17:22.620Z,12.58
2022-10-05T00:19:55.471Z,12.59
2022-10-05T00:22:32.988Z,12.60
2022-10-05T00:25:13.730Z,12.60
2022-10-05T00:27:47.209Z,12.58
2022-10-05T00:30:22.957Z,12.56
2022-10-05T00:32:59.459Z,12.58
2022-10-05T00:35:32.204Z,12.64
2022-10-05T00:38:04.561Z,12.66
2022-10-05T00:40:57.008Z,12.61
2022-10-05T00:43:47.269Z,12.61
2022-10-05T00:46:25.217Z,12.60
2022-10-05T00:49:11.152Z,12.62
2022-10-05T00:51:47.116Z,12.59
2022-10-05T00:54:34.482Z,12.74
2022-10-05T00:57:30.832Z,12.75
2022-10-05T01:00:08.913Z,12.68
2022-10-05T01:02:51.824Z,12.71
2022-10-05T01:05:37.468Z,12.75
2022-10-05T01:08:21.307Z,12.67
2022-10-05T01:11:05.016Z,12.69
2022-10-05T01:13:47.277Z,12.67
2022-10-05T01:16:25.148Z,12.71
2022-10-05T01:19:11.186Z,12.67
2022-10-05T01:21:50.377Z,12.58
2022-10-05T01:24:45.636Z,12.46
2022-10-05T01:27:32.201Z,12.71
2022-10-05T01:30:07.297Z,12.60
2022-10-05T01:32:45.475Z,12.73
2022-10-05T01:35:31.900Z,12.75
2022-10-05T01:38:25.393Z,12.73
2022-10-05T01:41:19.530Z,12.82
2022-10-05T01:44:01.435Z,12.84
2022-10-05T01:46:39.762Z,12.87
2022-10-05T01:49:33.899Z,12.85
2022-10-05T01:52:19.850Z,12.69
2022-10-05T01:55:07.220Z,12.77
2022-10-05T01:57:49.619Z,12.83
2022-10-05T02:00:22.677Z,12.78
2022-10-05T02:03:02.969Z,12.77
2022-10-05T02:05:41.529Z,12.84
2022-10-05T02:08:20.898Z,12.81
2022-10-05T02:11:00.321Z,12.53
2022-10-05T02:13:39.293Z,12.68
2022-10-05T02:16:17.935Z,12.70
2022-10-05T02:18:55.125Z,12.58
2022-10-05T02:21:27.917Z,12.57
2022-10-05T02:24:05.247Z,12.60
2022-10-05T02:26:39.788Z,12.66
2022-10-05T02:29:11.795Z,12.60
2022-10-05T02:31:52.443Z,12.65
2022-10-05T02:34:30.007Z,12.77
2022-10-05T02:37:23.408Z,12.71
2022-10-05T02:40:15.316Z,12.74
2022-10-05T02:42:55.560Z,12.80
2022-10-05T02:45:37.006Z,12.84
2022-10-05T02:48:16.813Z,12.85
2022-10-05T02:50:54.553Z,12.80
2022-10-05T02:53:34.765Z,12.74
2022-10-05T02:56:15.661Z,12.87
2022-10-05T02:58:57.730Z,12.85
2022-10-05T03:01:36.953Z,12.86
2022-10-05T03:04:22.580Z,12.86
2022-10-05T03:06:59.880Z,12.87
2022-10-05T03:09:37.645Z,12.88
2022-10-05T03:12:22.535Z,12.75
2022-10-05T03:15:12.391Z,12.70
2022-10-05T03:17:51.220Z,12.73
2022-10-05T03:20:35.368Z,12.63
2022-10-05T03:23:13.551Z,12.73
2022-10-05T03:26:03.863Z,12.66
2022-10-05T03:28:44.702Z,12.67
2022-10-05T03:31:24.598Z,12.65
2022-10-05T03:34:01.327Z,12.61
2022-10-05T03:36:43.685Z,12.62
2022-10-05T03:39:22.712Z,12.68
2022-10-05T03:42:01.561Z,12.65
2022-10-05T03:44:41.731Z,12.60
2022-10-05T03:47:23.596Z,12.67
2022-10-05T03:50:13.943Z,12.68
2022-10-05T03:52:51.212Z,12.67
2022-10-05T03:55:31.442Z,12.66
2022-10-05T03:58:20.700Z,12.53
2022-10-05T04:00:59.324Z,12.55
2022-10-05T04:03:35.644Z,12.55
2022-10-05T04:06:14.764Z,12.49
2022-10-05T04:08:53.230Z,12.51
2022-10-05T04:11:34.541Z,12.50
2022-10-05T04:14:14.195Z,12.54
2022-10-05T04:16:49.071Z,12.52
2022-10-05T04:19:27.212Z,12.52
2022-10-05T04:22:06.553Z,12.51
2022-10-05T04:24:47.423Z,12.51
2022-10-05T04:27:23.183Z,12.48
2022-10-05T04:30:01.815Z,12.45
2022-10-05T04:32:43.726Z,12.43
2022-10-05T04:35:39.271Z,12.40
2022-10-05T04:38:25.423Z,12.37
2022-10-05T04:41:16.008Z,12.35
2022-10-05T04:44:02.844Z,12.33
2022-10-05T04:46:54.195Z,12.32
2022-10-05T04:49:55.399Z,12.24
2022-10-05T04:52:37.192Z,12.21
2022-10-05T04:55:29.111Z,12.22
2022-10-05T04:58:13.905Z,12.17
2022-10-05T05:01:03.824Z,12.15
2022-10-05T05:03:50.635Z,12.14
2022-10-05T05:06:36.495Z,12.16
2022-10-05T05:09:36.318Z,12.19
2022-10-05T05:12:21.308Z,12.19
2022-10-05T05:15:19.478Z,12.08
2022-10-05T05:18:02.580Z,12.08
2022-10-05T05:20:52.439Z,12.02
2022-10-05T05:23:37.993Z,12.00
2022-10-05T05:26:26.031Z,12.15
2022-10-05T05:29:07.925Z,12.10
2022-10-05T05:31:49.934Z,12.20
2022-10-05T05:34:42.866Z,12.30
2022-10-05T05:37:24.574Z,12.00
2022-10-05T05:40:14.691Z,11.97
2022-10-05T05:42:58.371Z,12.00
2022-10-05T05:45:41.936Z,12.15
2022-10-05T05:48:20.533Z,12.15
2022-10-05T05:51:01.893Z,11.93
2022-10-05T05:53:40.588Z,11.98
2022-10-05T05:56:17.277Z,12.12
2022-10-05T05:58:55.676Z,12.22
2022-10-05T06:01:33.941Z,12.30
2022-10-05T06:04:15.706Z,12.27
2022-10-05T06:06:50.814Z,12.16
2022-10-05T06:09:24.101Z,12.32
2022-10-05T06:12:09.879Z,12.42
2022-10-05T06:14:48.629Z,12.48
2022-10-05T06:17:25.587Z,12.41
2022-10-05T06:20:05.199Z,12.48
2022-10-05T06:22:44.278Z,12.50
2022-10-05T06:25:33.199Z,12.55
2022-10-05T06:28:13.728Z,12.67
2022-10-05T06:31:02.315Z,12.73
2022-10-05T06:33:47.980Z,12.70
2022-10-05T06:36:33.841Z,12.74
2022-10-05T06:39:29.092Z,12.87
2022-10-05T06:42:19.969Z,12.94
2022-10-05T06:45:27.290Z,13.04
2022-10-05T06:48:32.533Z,13.07
2022-10-05T06:51:34.771Z,12.97
2022-10-05T06:54:29.481Z,13.13
2022-10-05T06:57:11.339Z,13.15
2022-10-05T06:59:53.647Z,13.14
2022-10-05T07:02:36.755Z,13.18
2022-10-05T07:05:40.589Z,13.20
2022-10-05T07:08:15.770Z,13.23
2022-10-05T07:11:03.418Z,13.21
2022-10-05T07:14:14.785Z,13.32
2022-10-05T07:17:02.522Z,13.23
2022-10-05T07:19:43.904Z,13.38
2022-10-05T07:22:42.349Z,13.40
2022-10-05T07:25:20.348Z,13.41
2022-10-05T07:28:00.999Z,13.57
2022-10-05T07:30:38.629Z,13.42
2022-10-05T07:33:19.830Z,13.53
2022-10-05T07:36:14.449Z,13.63
2022-10-05T07:38:54.233Z,13.81
2022-10-05T07:41:37.252Z,13.97
2022-10-05T07:44:16.112Z,13.93
2022-10-05T07:46:57.660Z,13.91
2022-10-05T07:49:42.483Z,13.99
2022-10-05T07:52:21.039Z,14.07
2022-10-05T07:55:05.526Z,14.03
2022-10-05T07:57:47.042Z,14.09
2022-10-05T08:00:22.364Z,14.08
2022-10-05T08:02:59.996Z,14.17
2022-10-05T08:05:34.340Z,14.28
2022-10-05T08:08:18.207Z,14.30
2022-10-05T08:11:00.686Z,14.29
2022-10-05T08:13:41.654Z,14.49
2022-10-05T08:16:14.626Z,14.55
2022-10-05T08:18:56.884Z,14.67
2022-10-05T08:21:36.235Z,14.73
2022-10-05T08:24:19.589Z,14.78
2022-10-05T08:27:02.212Z,14.87
2022-10-05T08:29:40.133Z,14.94
2022-10-05T08:32:19.943Z,15.09
2022-10-05T08:34:58.159Z,15.16
2022-10-05T08:37:33.277Z,15.30
2022-10-05T08:40:35.050Z,15.29
2022-10-05T08:43:19.252Z,15.39
2022-10-05T08:46:24.259Z,15.42
2022-10-05T08:49:18.288Z,15.46
2022-10-05T08:52:26.190Z,15.50
2022-10-05T08:55:47.624Z,15.66
2022-10-05T08:58:59.742Z,15.60
2022-10-05T09:01:46.966Z,15.64
2022-10-05T09:04:44.178Z,15.84
2022-10-05T09:07:44.399Z,15.91
2022-10-05T09:10:53.229Z,15.84
2022-10-05T09:14:02.030Z,16.10
2022-10-05T09:16:51.039Z,16.12
2022-10-05T09:19:54.168Z,16.30
2022-10-05T09:22:37.998Z,16.44
2022-10-05T09:25:24.946Z,16.42
2022-10-05T09:28:05.278Z,16.42
2022-10-05T09:31:07.443Z,16.42
2022-10-05T09:34:14.471Z,16.42
2022-10-05T09:37:27.440Z,16.32
2022-10-05T09:40:20.634Z,16.49
2022-10-05T09:43:17.560Z,16.50
2022-10-05T09:46:28.931Z,16.58
2022-10-05T09:49:31.195Z,16.54
2022-10-05T09:52:17.895Z,16.66
2022-10-05T09:55:27.585Z,16.62
2022-10-05T09:58:38.139Z,16.84
2022-10-05T10:01:33.179Z,16.97
2022-10-05T10:04:29.782Z,16.97
2022-10-05T10:07:41.900Z,16.98
2022-10-05T10:10:32.518Z,17.12
2022-10-05T10:13:30.584Z,17.27
2022-10-05T10:16:19.356Z,17.42
2022-10-05T10:19:32.567Z,17.44
2022-10-05T10:22:31.861Z,17.37
2022-10-05T10:25:47.439Z,17.38
2022-10-05T10:28:44.981Z,17.31
2022-10-05T10:32:01.775Z,17.40
2022-10-05T10:34:50.254Z,17.52
2022-10-05T10:37:59.870Z,17.56
2022-10-05T10:40:46.255Z,17.67
2022-10-05T10:43:52.199Z,17.70
2022-10-05T10:46:32.124Z,17.79
2022-10-05T10:49:24.377Z,17.89
2022-10-05T10:52:13.252Z,17.88
2022-10-05T10:55:05.462Z,17.91
2022-10-05T10:57:53.413Z,17.85
2022-10-05T11:00:44.313Z,17.95
2022-10-05T11:03:45.641Z,18.01
2022-10-05T11:06:51.736Z,18.00
2022-10-05T11:09:48.985Z,17.99
2022-10-05T11:12:54.696Z,17.87
2022-10-05T11:15:45.265Z,17.87
2022-10-05T11:18:21.804Z,17.98
2022-10-05T11:21:24.017Z,17.95
2022-10-05T11:24:32.695Z,18.07
2022-10-05T11:27:46.750Z,18.17
2022-10-05T11:30:29.431Z,18.17
2022-10-05T11:33:32.394Z,18.06
2022-10-05T11:36:28.629Z,18.07
2022-10-05T11:39:30.351Z,18.02
2022-10-05T11:42:20.987Z,17.99
2022-10-05T11:45:23.325Z,17.91
2022-10-05T11:48:29.452Z,17.91
2022-10-05T11:51:35.546Z,18.03
2022-10-05T11:54:24.447Z,18.07
2022-10-05T11:57:03.303Z,18.09
2022-10-05T11:59:44.152Z,18.12
2022-10-05T12:02:37.914Z,18.21
2022-10-05T12:05:21.332Z,18.24
2022-10-05T12:08:06.079Z,18.24
2022-10-05T12:10:45.994Z,18.30
2022-10-05T12:13:33.303Z,18.02
2022-10-05T12:16:13.131Z,18.22
2022-10-05T12:18:54.930Z,18.14
2022-10-05T12:21:38.073Z,18.16
2022-10-05T12:24:24.636Z,18.17
2022-10-05T12:27:04.004Z,18.21
2022-10-05T12:29:43.002Z,18.25
2022-10-05T12:32:20.939Z,18.28
2022-10-05T12:35:02.017Z,18.24
2022-10-05T12:37:47.761Z,18.20
2022-10-05T12:40:27.821Z,18.26
2022-10-05T12:43:12.000Z,18.30
2022-10-05T12:45:59.787Z,18.38
2022-10-05T12:48:56.190Z,18.41
2022-10-05T12:51:39.994Z,18.38
2022-10-05T12:54:23.425Z,18.38
2022-10-05T12:56:59.665Z,18.34
2022-10-05T12:59:41.236Z,18.24
2022-10-05T13:02:26.932Z,18.32
2022-10-05T13:05:08.016Z,18.34
2022-10-05T13:07:48.410Z,18.30
2022-10-05T13:10:32.458Z,18.26
2022-10-05T13:13:36.086Z,18.21
2022-10-05T13:16:24.579Z,18.15
2022-10-05T13:19:06.582Z,18.19
2022-10-05T13:21:55.262Z,18.18
2022-10-05T13:24:32.695Z,18.24
2022-10-05T13:27:18.913Z,18.41
2022-10-05T13:29:59.566Z,18.49
2022-10-05T13:32:36.259Z,18.53
2022-10-05T13:35:26.010Z,18.57
2022-10-05T13:38:09.234Z,18.60
2022-10-05T13:40:47.142Z,18.68
2022-10-05T13:43:29.250Z,18.74
2022-10-05T13:46:08.069Z,18.90
2022-10-05T13:48:53.209Z,18.90
2022-10-05T13:51:30.512Z,18.76
2022-10-05T13:54:11.840Z,18.80
2022-10-05T13:56:49.916Z,18.88
2022-10-05T13:59:35.405Z,18.79
2022-10-05T14:02:09.771Z,18.83
2022-10-05T14:04:49.662Z,18.83
2022-10-05T14:07:31.759Z,18.79
2022-10-05T14:10:06.796Z,18.76
2022-10-05T14:12:44.439Z,18.71
2022-10-05T14:15:24.298Z,18.71
2022-10-05T14:17:56.608Z,18.72
2022-10-05T14:20:34.591Z,18.71
2022-10-05T14:23:17.384Z,18.62
2022-10-05T14:25:54.754Z,18.68
2022-10-05T14:28:30.625Z,18.71
2022-10-05T14:31:09.859Z,18.66
2022-10-05T14:33:42.146Z,18.67
2022-10-05T14:36:17.298Z,18.66
2022-10-05T14:38:57.854Z,18.62
2022-10-05T14:41:35.396Z,18.63
2022-10-05T14:44:27.970Z,18.62
2022-10-05T14:47:13.311Z,18.59
2022-10-05T14:50:10.800Z,18.53
2022-10-05T14:52:50.977Z,18.50
2022-10-05T14:55:39.152Z,18.52
2022-10-05T14:58:29.244Z,18.49
2022-10-05T15:01:13.755Z,18.43
2022-10-05T15:03:59.009Z,18.46
2022-10-05T15:06:33.748Z,18.48
2022-10-05T15:09:23.013Z,18.50
2022-10-05T15:11:56.944Z,18.48
2022-10-05T15:14:33.478Z,18.46
2022-10-05T15:17:15.625Z,18.49
2022-10-05T15:20:03.661Z,18.45
2022-10-05T15:22:44.114Z,18.44
2022-10-05T15:25:23.155Z,18.45
2022-10-05T15:28:08.053Z,18.44
2022-10-05T15:30:45.231Z,18.44
2022-10-05T15:33:25.388Z,18.44
2022-10-05T15:36:15.169Z,18.38
2022-10-05T15:39:00.239Z,18.41
2022-10-05T15:41:41.565Z,18.36
2022-10-05T15:44:26.134Z,18.33
2022-10-05T15:47:04.036Z,18.29
2022-10-05T15:49:46.873Z,18.26
2022-10-05T15:52:26.971Z,18.16
2022-10-05T15:55:28.462Z,18.13
2022-10-05T15:58:21.582Z,18.11
2022-10-05T16:00:59.799Z,18.06
2022-10-05T16:03:45.785Z,17.99
2022-10-05T16:06:57.154Z,17.91
2022-10-05T16:09:52.077Z,17.90
2022-10-05T16:12:33.479Z,17.82
2022-10-05T16:15:17.684Z,17.78
2022-10-05T16:18:31.807Z,17.73
2022-10-05T16:21:16.812Z,17.57
2022-10-05T16:24:05.192Z,17.58
2022-10-05T16:26:51.095Z,17.56
2022-10-05T16:29:34.002Z,17.49
2022-10-05T16:32:13.944Z,17.44
2022-10-05T16:34:58.149Z,17.40
2022-10-05T16:37:41.141Z,17.33
2022-10-05T16:40:21.218Z,17.27
2022-10-05T16:43:04.923Z,17.20
2022-10-05T16:46:08.732Z,17.16
2022-10-05T16:49:00.578Z,17.07
2022-10-05T16:51:39.045Z,16.99
2022-10-05T16:54:20.631Z,16.93
2022-10-05T16:56:57.225Z,16.80
2022-10-05T17:00:15.947Z,16.83
2022-10-05T17:03:12.195Z,16.77
2022-10-05T17:05:59.019Z,16.70
2022-10-05T17:08:46.826Z,16.68
2022-10-05T17:11:36.985Z,16.64
2022-10-05T17:14:26.865Z,16.61
2022-10-05T17:17:24.168Z,16.54
2022-10-05T17:20:10.067Z,16.52
2022-10-05T17:22:52.403Z,16.48
2022-10-05T17:25:36.323Z,16.44
2022-10-05T17:28:37.049Z,16.36
2022-10-05T17:31:17.223Z,16.32
2022-10-05T17:34:13.543Z,16.29
2022-10-05T17:36:50.518Z,16.25
2022-10-05T17:39:24.612Z,16.23
2022-10-05T17:42:34.446Z,16.10
2022-10-05T17:45:37.154Z,16.08
2022-10-05T17:48:12.710Z,16.06
2022-10-05T17:51:03.913Z,15.96
2022-10-05T17:54:05.602Z,15.87
2022-10-05T17:57:11.224Z,15.97
2022-10-05T17:59:57.687Z,15.89
2022-10-05T18:02:44.049Z,15.90
2022-10-05T18:05:25.742Z,15.93
2022-10-05T18:08:31.824Z,15.97
2022-10-05T18:11:17.374Z,15.90
2022-10-05T18:13:51.122Z,15.98
2022-10-05T18:21:24.511Z,15.86
2022-10-05T18:24:16.205Z,15.83
2022-10-05T18:27:00.114Z,15.75
2022-10-05T18:30:05.480Z,15.76
2022-10-05T18:32:55.346Z,15.71
2022-10-05T18:35:37.083Z,15.66
2022-10-05T18:38:24.934Z,15.63
2022-10-05T18:41:03.122Z,15.59
2022-10-05T18:43:44.866Z,15.54
2022-10-05T18:46:34.375Z,15.47
2022-10-05T18:49:23.194Z,15.40
2022-10-05T18:52:03.564Z,15.25
2022-10-05T18:54:50.582Z,15.27
2022-10-05T18:57:52.495Z,15.18
2022-10-05T19:00:39.863Z,15.16
2022-10-05T19:07:49.622Z,15.10
2022-10-05T19:10:29.162Z,15.13
2022-10-05T19:13:13.165Z,15.13
2022-10-05T19:15:55.205Z,15.14
2022-10-05T19:19:01.351Z,15.12
2022-10-05T19:21:42.532Z,15.03
2022-10-05T19:24:40.726Z,15.12
2022-10-05T19:28:06.581Z,15.08
2022-10-05T19:30:52.591Z,15.10
2022-10-05T19:41:53.330Z,15.11
2022-10-05T19:44:40.028Z,15.10
2022-10-05T19:47:25.548Z,15.06
2022-10-05T19:50:29.308Z,14.98
2022-10-05T20:36:35.438Z,15.06
2022-10-05T20:53:16.107Z,15.00
2022-10-05T20:56:17.984Z,15.05
2022-10-05T21:12:58.616Z,15.02
2022-10-05T21:19:46.638Z,14.84
2022-10-05T21:22:19.049Z,14.81
2022-10-05T21:24:51.224Z,14.63
2022-10-05T21:27:25.407Z,14.77
2022-10-05T21:29:57.688Z,14.71
2022-10-05T21:32:31.189Z,14.67
2022-10-05T21:35:03.520Z,14.59
2022-10-05T21:37:35.637Z,14.62
2022-10-05T21:40:09.147Z,14.59
2022-10-05T21:42:41.446Z,14.56
2022-10-05T21:45:22.128Z,14.57
2022-10-05T21:52:32.514Z,14.47
2022-10-05T21:56:10.796Z,14.47
2022-10-05T22:08:48.258Z,14.49
2022-10-05T22:11:35.643Z,14.48
2022-10-05T22:14:19.878Z,14.40
2022-10-05T22:44:25.351Z,14.36
2022-10-05T23:19:35.524Z,14.46
